Time;durP1;ratioP1;P1;durP2;ratioP2;P2;SDS_P1;SDS_P2;PMS_P1;PMS_P2;Temp;Humidity;BMP_temperature;BMP_pressure;BME280_temperature;BME280_humidity;BME280_pressure;Samples;Min_cycle;Max_cycle;Signal;HPM_P1;HPM_P2
2022/09/18 00:02:20;;;;;;;;;;;282.20;2278.40;;;;;;5033029;28;20008;-59
2022/09/18 00:04:46;;;;;;;;;;;282.20;2278.40;;;;;;5033221;28;19913;-61
2022/09/18 00:07:11;;;;;;;;;;;282.10;2278.40;;;;;;5032914;28;19910;-60
2022/09/18 00:09:37;;;;;;;;;;;282.30;2278.40;;;;;;5032860;28;19909;-61
2022/09/18 00:12:03;;;;;;;;;;;282.30;2278.40;;;;;;5032938;28;20363;-61
2022/09/18 00:14:28;;;;;;;;;;;282.20;2278.40;;;;;;5032755;28;19936;-59
2022/09/18 00:16:54;;;;;;;;;;;282.30;2278.40;;;;;;5032831;28;19913;-60
2022/09/18 00:19:19;;;;;;;;;;;282.20;2278.40;;;;;;5032753;28;19909;-68
2022/09/18 00:21:46;;;;;;;;;;;282.30;2278.40;;;;;;5032772;28;20381;-68
2022/09/18 00:24:12;;;;;;;;;;;282.40;2278.40;;;;;;5032583;28;19956;-60
2022/09/18 00:26:38;;;;;;;;;;;282.40;2278.40;;;;;;5032408;28;19913;-64
2022/09/18 00:29:03;;;;;;;;;;;282.50;2278.40;;;;;;5032935;28;19909;-67
2022/09/18 00:31:34;;;;;;;;;;;282.40;2278.40;;;;;;5032323;28;19909;-69
2022/09/18 00:34:01;;;;;;;;;;;282.40;2278.40;;;;;;5032360;28;19910;-69
2022/09/18 00:36:28;;;;;;;;;;;282.50;2278.40;;;;;;5032705;28;20522;-61
2022/09/18 00:38:54;;;;;;;;;;;282.40;2278.40;;;;;;5032447;28;19916;-61
2022/09/18 00:41:24;;;;;;;;;;;282.40;2278.40;;;;;;5032115;28;19917;-62
2022/09/18 00:43:50;;;;;;;;;;;282.40;2278.40;;;;;;5031975;28;19913;-64
2022/09/18 00:46:27;;;;;;;;;;;282.20;2278.40;;;;;;5032288;28;20295;-69
2022/09/18 00:49:02;;;;;;;;;;;282.20;2278.40;;;;;;5032288;28;19909;-59
2022/09/18 00:51:30;;;;;;;;;;;282.20;2278.40;;;;;;5032259;28;19913;-59
2022/09/18 00:54:18;;;;;;;;;;;282.30;2278.40;;;;;;5032248;28;19909;-65
2022/09/18 00:56:44;;;;;;;;;;;282.30;2278.40;;;;;;5032239;28;19910;-69
2022/09/18 00:59:11;;;;;;;;;;;282.30;2278.40;;;;;;5031788;28;19932;-69
2022/09/18 01:01:37;;;;;;;;;;;282.30;2278.40;;;;;;5031254;28;19917;-58
2022/09/18 01:04:03;;;;;;;;;;;282.30;2278.40;;;;;;5032180;28;19909;-59
2022/09/18 01:06:42;;;;;;;;;;;282.30;2278.40;;;;;;5031820;28;19909;-59
2022/09/18 01:09:15;;;;;;;;;;;282.30;2278.40;;;;;;5032001;28;20355;-59
2022/09/18 01:11:53;;;;;;;;;;;282.30;2278.40;;;;;;5031514;28;19913;-59
2022/09/18 01:14:21;;;;;;;;;;;282.40;2278.40;;;;;;5031341;28;19914;-59
2022/09/18 01:16:59;;;;;;;;;;;282.40;2278.40;;;;;;5031559;28;19913;-59
2022/09/18 01:19:34;;;;;;;;;;;282.40;2278.40;;;;;;5031781;28;19909;-58
2022/09/18 01:22:06;;;;;;;;;;;282.40;2278.40;;;;;;5031384;28;19924;-59
2022/09/18 01:24:43;;;;;;;;;;;282.40;2278.40;;;;;;5031774;28;19941;-59
2022/09/18 01:27:10;;;;;;;;;;;282.20;2278.40;;;;;;5031505;28;19909;-59
2022/09/18 01:29:46;;;;;;;;;;;282.20;2278.40;;;;;;5031560;28;20301;-59
2022/09/18 01:32:24;;;;;;;;;;;282.20;2278.40;;;;;;5031803;28;19955;-59
2022/09/18 01:34:52;;;;;;;;;;;282.20;2278.40;;;;;;5031300;28;19909;-64
2022/09/18 01:37:36;;;;;;;;;;;282.20;2278.40;;;;;;5031249;28;19909;-59
2022/09/18 01:40:02;;;;;;;;;;;282.20;2278.40;;;;;;5031163;28;19909;-59
2022/09/18 01:42:28;;;;;;;;;;;282.30;2278.40;;;;;;5030837;28;20379;-59
2022/09/18 01:44:55;;;;;;;;;;;282.20;2278.40;;;;;;5031036;28;20324;-59
2022/09/18 01:47:23;;;;;;;;;;;282.20;2278.40;;;;;;5031097;28;19971;-59
2022/09/18 01:49:49;;;;;;;;;;;282.20;2278.40;;;;;;5030865;28;19913;-59
2022/09/18 01:52:22;;;;;;;;;;;282.20;2278.40;;;;;;5031100;28;20344;-65
2022/09/18 01:54:48;;;;;;;;;;;282.10;2278.40;;;;;;5030689;28;19909;-59
2022/09/18 01:57:22;;;;;;;;;;;282.00;2278.40;;;;;;5031096;28;20010;-58
2022/09/18 01:59:49;;;;;;;;;;;282.00;2278.40;;;;;;5030968;28;19931;-59
2022/09/18 02:02:30;;;;;;;;;;;282.10;2278.40;;;;;;5030983;28;20283;-69
2022/09/18 02:04:58;;;;;;;;;;;282.20;2278.40;;;;;;5031013;28;19909;-59
2022/09/18 02:07:28;;;;;;;;;;;282.20;2278.40;;;;;;5030832;28;19991;-59
2022/09/18 02:09:54;;;;;;;;;;;282.20;2278.40;;;;;;5030785;28;20274;-59
2022/09/18 02:12:22;;;;;;;;;;;282.30;2278.40;;;;;;5030538;28;20000;-64
2022/09/18 02:14:50;;;;;;;;;;;282.30;2278.40;;;;;;5029601;28;20007;-61
2022/09/18 02:17:21;;;;;;;;;;;282.50;2278.40;;;;;;5030742;28;19919;-60
2022/09/18 02:19:52;;;;;;;;;;;282.50;2278.40;;;;;;5030695;28;19909;-69
2022/09/18 02:22:20;;;;;;;;;;;282.50;2278.40;;;;;;5030260;28;19917;-61
2022/09/18 02:24:47;;;;;;;;;;;282.50;2278.40;;;;;;5030810;28;19909;-59
2022/09/18 02:27:13;;;;;;;;;;;307.20;2304.00;;;;;;5030656;28;19909;-60
2022/09/18 02:29:41;;;;;;;;;;;307.20;2304.00;;;;;;5030451;28;19916;-68
2022/09/18 02:32:06;;;;;;;;;;;307.20;2304.00;;;;;;5030457;28;19910;-60
2022/09/18 02:34:32;;;;;;;;;;;307.20;2304.00;;;;;;5030327;28;19916;-60
2022/09/18 02:37:16;;;;;;;;;;;307.20;2304.00;;;;;;5030252;28;19959;-68
2022/09/18 02:40:00;;;;;;;;;;;307.20;2304.00;;;;;;5030147;28;20387;-61
2022/09/18 02:42:32;;;;;;;;;;;307.20;2304.00;;;;;;5030299;28;20402;-60
2022/09/18 02:45:07;;;;;;;;;;;282.50;2278.40;;;;;;5029959;28;20338;-60
2022/09/18 02:47:36;;;;;;;;;;;282.40;2278.40;;;;;;5030737;28;20011;-67
2022/09/18 02:50:20;;;;;;;;;;;282.40;2278.40;;;;;;5030149;28;19913;-60
2022/09/18 02:52:55;;;;;;;;;;;282.40;2278.40;;;;;;5030495;28;19913;-59
2022/09/18 02:55:24;;;;;;;;;;;282.20;2278.40;;;;;;5030188;28;19913;-59
2022/09/18 02:58:02;;;;;;;;;;;282.40;2278.40;;;;;;5030065;28;19913;-59
2022/09/18 03:00:28;;;;;;;;;;;282.40;2278.40;;;;;;5030056;28;19913;-59
2022/09/18 03:02:58;;;;;;;;;;;282.40;2278.40;;;;;;5030223;28;19924;-59
2022/09/18 03:05:24;;;;;;;;;;;282.40;2278.40;;;;;;5030131;28;20405;-59
2022/09/18 03:07:49;;;;;;;;;;;282.40;2278.40;;;;;;5030158;28;19909;-59
2022/09/18 03:10:15;;;;;;;;;;;282.40;2278.40;;;;;;5030217;28;20394;-58
2022/09/18 03:12:41;;;;;;;;;;;282.40;2278.40;;;;;;5029877;28;19920;-59
2022/09/18 03:15:07;;;;;;;;;;;282.40;2278.40;;;;;;5030143;28;20375;-59
2022/09/18 03:17:32;;;;;;;;;;;282.50;2278.40;;;;;;5030341;28;19913;-59
2022/09/18 03:19:58;;;;;;;;;;;282.50;2278.40;;;;;;5029993;28;19909;-59
2022/09/18 03:22:23;;;;;;;;;;;282.40;2278.40;;;;;;5030055;28;20006;-59
2022/09/18 03:24:49;;;;;;;;;;;282.50;2278.40;;;;;;5030524;28;19909;-59
2022/09/18 03:27:17;;;;;;;;;;;282.50;2278.40;;;;;;5033870;28;19913;-59
2022/09/18 03:29:44;;;;;;;;;;;282.50;2278.40;;;;;;5033856;28;19932;-59
2022/09/18 03:32:10;;;;;;;;;;;307.20;2304.00;;;;;;5033438;28;19917;-59
2022/09/18 03:34:36;;;;;;;;;;;307.20;2304.00;;;;;;5033867;28;20000;-59
2022/09/18 03:37:02;;;;;;;;;;;307.20;2304.00;;;;;;5033526;28;20000;-59
2022/09/18 03:39:28;;;;;;;;;;;282.50;2278.40;;;;;;5033523;28;20012;-59
2022/09/18 03:41:53;;;;;;;;;;;282.40;2278.40;;;;;;5033293;28;20328;-68
2022/09/18 03:44:19;;;;;;;;;;;282.30;2278.40;;;;;;5033055;28;19917;-59
2022/09/18 03:46:45;;;;;;;;;;;282.30;2278.40;;;;;;5033500;28;19928;-59
2022/09/18 03:49:10;;;;;;;;;;;282.20;2278.40;;;;;;5033451;28;20276;-59
2022/09/18 03:51:36;;;;;;;;;;;282.10;2278.40;;;;;;5033613;28;19909;-59
2022/09/18 03:54:01;;;;;;;;;;;282.10;2278.40;;;;;;5033322;28;20278;-59
2022/09/18 03:56:27;;;;;;;;;;;282.00;2278.40;;;;;;5033332;28;20379;-58
2022/09/18 03:58:52;;;;;;;;;;;282.00;2278.40;;;;;;5033501;28;19917;-58
2022/09/18 04:01:18;;;;;;;;;;;282.00;2278.40;;;;;;5033014;28;19921;-59
2022/09/18 04:03:43;;;;;;;;;;;281.90;2278.40;;;;;;5033286;28;20060;-58
2022/09/18 04:06:09;;;;;;;;;;;281.90;2278.40;;;;;;5033057;28;19909;-58
2022/09/18 04:08:36;;;;;;;;;;;281.90;2278.40;;;;;;5033242;28;20386;-68
2022/09/18 04:11:03;;;;;;;;;;;281.90;2278.40;;;;;;5032877;28;19909;-59
2022/09/18 04:13:29;;;;;;;;;;;281.80;2278.40;;;;;;5032532;28;19916;-60
2022/09/18 04:15:54;;;;;;;;;;;281.80;2278.40;;;;;;5032933;28;19917;-59
2022/09/18 04:18:20;;;;;;;;;;;281.90;2278.40;;;;;;5033018;28;19910;-59
2022/09/18 04:20:45;;;;;;;;;;;281.80;2278.40;;;;;;5033073;28;19909;-64
2022/09/18 04:23:13;;;;;;;;;;;281.90;2278.40;;;;;;5032674;28;19917;-59
2022/09/18 04:25:42;;;;;;;;;;;281.80;2278.40;;;;;;5032726;28;19963;-59
2022/09/18 04:28:08;;;;;;;;;;;281.80;2278.40;;;;;;5032455;28;19909;-60
2022/09/18 04:30:36;;;;;;;;;;;281.80;2278.40;;;;;;5033021;28;19913;-62
2022/09/18 04:33:01;;;;;;;;;;;281.80;2278.40;;;;;;5032571;28;19952;-63
2022/09/18 04:35:27;;;;;;;;;;;281.90;2278.40;;;;;;5032733;28;20438;-59
2022/09/18 04:37:53;;;;;;;;;;;281.80;2278.40;;;;;;5031651;28;19992;-60
2022/09/18 04:40:19;;;;;;;;;;;282.00;2278.40;;;;;;5032569;28;20344;-59
2022/09/18 04:42:44;;;;;;;;;;;281.90;2278.40;;;;;;5032233;28;19975;-60
2022/09/18 04:45:10;;;;;;;;;;;282.00;2278.40;;;;;;5032027;28;19928;-69
2022/09/18 04:47:36;;;;;;;;;;;282.00;2278.40;;;;;;5032410;28;19957;-59
2022/09/18 04:50:02;;;;;;;;;;;282.00;2278.40;;;;;;5032247;28;19913;-59
2022/09/18 04:52:28;;;;;;;;;;;282.00;2278.40;;;;;;5032226;28;19909;-60
2022/09/18 04:54:54;;;;;;;;;;;282.00;2278.40;;;;;;5032303;28;19917;-59
2022/09/18 04:57:19;;;;;;;;;;;282.10;2278.40;;;;;;5031880;28;19910;-58
2022/09/18 04:59:45;;;;;;;;;;;282.20;2278.40;;;;;;5032212;28;19949;-59
2022/09/18 05:02:10;;;;;;;;;;;282.20;2278.40;;;;;;5031768;28;19918;-60
2022/09/18 05:04:36;;;;;;;;;;;282.20;2278.40;;;;;;5032143;28;19909;-70
2022/09/18 05:07:03;;;;;;;;;;;282.30;2278.40;;;;;;5031685;28;19909;-60
2022/09/18 05:09:29;;;;;;;;;;;282.40;2278.40;;;;;;5031778;28;19909;-60
2022/09/18 05:11:55;;;;;;;;;;;282.40;2278.40;;;;;;5031835;28;19956;-59
2022/09/18 05:14:21;;;;;;;;;;;282.50;2278.40;;;;;;5031470;28;19943;-59
2022/09/18 05:16:47;;;;;;;;;;;282.50;2278.40;;;;;;5031708;28;19921;-60
2022/09/18 05:19:12;;;;;;;;;;;282.50;2278.40;;;;;;5031779;28;19909;-59
2022/09/18 05:21:38;;;;;;;;;;;282.50;2278.40;;;;;;5031387;28;19924;-60
2022/09/18 05:24:03;;;;;;;;;;;307.20;2304.00;;;;;;5031801;28;19916;-60
2022/09/18 05:26:30;;;;;;;;;;;307.30;2304.00;;;;;;5031297;28;20351;-60
2022/09/18 05:28:55;;;;;;;;;;;307.30;2304.00;;;;;;5031717;28;19916;-59
2022/09/18 05:31:21;;;;;;;;;;;307.30;2304.00;;;;;;5031418;28;19914;-59
2022/09/18 05:33:46;;;;;;;;;;;307.50;2304.00;;;;;;5031373;28;20334;-59
2022/09/18 05:36:12;;;;;;;;;;;307.40;2304.00;;;;;;5031572;28;19917;-59
2022/09/18 05:38:38;;;;;;;;;;;307.50;2304.00;;;;;;5031298;28;19913;-60
2022/09/18 05:41:03;;;;;;;;;;;307.60;2304.00;;;;;;5031356;28;19971;-59
2022/09/18 05:43:29;;;;;;;;;;;307.80;2304.00;;;;;;5030873;28;19948;-60
2022/09/18 05:45:55;;;;;;;;;;;307.90;2304.00;;;;;;5031017;28;20035;-60
2022/09/18 05:48:21;;;;;;;;;;;308.00;2304.00;;;;;;5031047;28;19909;-66
2022/09/18 05:50:47;;;;;;;;;;;308.00;2304.00;;;;;;5031078;28;19916;-59
2022/09/18 05:53:14;;;;;;;;;;;332.80;2329.60;;;;;;5031365;28;19951;-59
2022/09/18 05:55:39;;;;;;;;;;;333.10;2329.60;;;;;;5030860;28;19955;-58
2022/09/18 05:58:06;;;;;;;;;;;333.30;2329.60;;;;;;5031358;28;19909;-58
2022/09/18 06:00:33;;;;;;;;;;;384.40;2329.60;;;;;;5030886;28;20437;-59
2022/09/18 06:02:59;;;;;;;;;;;461.40;2304.00;;;;;;5030658;28;20356;-59
2022/09/18 06:05:25;;;;;;;;;;;512.20;1996.80;;;;;;5031075;28;19967;-59
2022/09/18 06:07:51;;;;;;;;;;;538.20;1920.00;;;;;;5030740;28;19984;-59
2022/09/18 06:10:17;;;;;;;;;;;589.40;1689.60;;;;;;5030993;28;19913;-59
2022/09/18 06:12:43;;;;;;;;;;;640.20;1561.60;;;;;;5030656;28;19990;-59
2022/09/18 06:15:09;;;;;;;;;;;640.70;1510.40;;;;;;5030500;28;19913;-62
2022/09/18 06:17:35;;;;;;;;;;;691.80;1433.60;;;;;;5030458;28;20359;-59
2022/09/18 06:20:00;;;;;;;;;;;691.90;1382.40;;;;;;5030613;28;19917;-66
2022/09/18 06:22:26;;;;;;;;;;;717.50;1356.80;;;;;;5030855;28;19963;-64
2022/09/18 06:24:52;;;;;;;;;;;742.50;1331.20;;;;;;5030503;28;19932;-59
2022/09/18 06:27:17;;;;;;;;;;;768.10;1305.60;;;;;;5030435;28;19963;-60
2022/09/18 06:29:43;;;;;;;;;;;768.70;1254.40;;;;;;5030844;28;20011;-60
2022/09/18 06:32:08;;;;;;;;;;;768.10;1254.40;;;;;;5030486;28;20328;-66
2022/09/18 06:34:34;;;;;;;;;;;768.10;1254.40;;;;;;5030668;28;19994;-65
2022/09/18 06:37:00;;;;;;;;;;;743.30;1254.40;;;;;;5030447;28;19939;-60
2022/09/18 06:39:25;;;;;;;;;;;768.20;1228.80;;;;;;5030587;28;19909;-60
2022/09/18 06:41:51;;;;;;;;;;;742.60;1280.00;;;;;;5030238;28;19951;-65
2022/09/18 06:44:16;;;;;;;;;;;768.30;1228.80;;;;;;5030133;28;20139;-63
2022/09/18 06:46:42;;;;;;;;;;;768.60;1203.20;;;;;;5030215;28;19921;-61
2022/09/18 06:49:07;;;;;;;;;;;793.80;1177.60;;;;;;5030563;28;19909;-60
2022/09/18 06:51:33;;;;;;;;;;;794.00;1203.20;;;;;;5030502;28;19995;-60
2022/09/18 06:53:59;;;;;;;;;;;;;;;;;;5030185;28;19909;-60
2022/09/18 06:56:24;;;;;;;;;;;793.70;1177.60;;;;;;5030430;28;19909;-60
2022/09/18 06:58:50;;;;;;;;;;;;;;;;;;5030057;28;19917;-70
2022/09/18 07:01:16;;;;;;;;;;;;;;;;;;5033143;28;19917;-60
2022/09/18 07:03:42;;;;;;;;;;;;;;;;;;5034147;28;20306;-60
2022/09/18 07:06:08;;;;;;;;;;;793.70;1152.00;;;;;;5034041;28;19924;-61
2022/09/18 07:08:34;;;;;;;;;;;;;;;;;;5034293;28;19909;-61
2022/09/18 07:11:01;;;;;;;;;;;819.40;1126.40;;;;;;5034077;28;19916;-60
2022/09/18 07:13:33;;;;;;;;;;;844.90;1126.40;;;;;;5033999;28;20263;-60
2022/09/18 07:15:58;;;;;;;;;;;819.70;1075.20;;;;;;5033726;28;19917;-60
2022/09/18 07:18:24;;;;;;;;;;;820.10;1075.20;;;;;;5034021;28;20016;-60
2022/09/18 07:20:50;;;;;;;;;;;844.80;1100.80;;;;;;5033685;28;19977;-61
2022/09/18 07:23:16;;;;;;;;;;;844.90;1075.20;;;;;;5034107;28;19920;-68
2022/09/18 07:25:41;;;;;;;;;;;845.20;1075.20;;;;;;5033785;28;19917;-60
2022/09/18 07:28:09;;;;;;;;;;;845.40;1075.20;;;;;;5033804;28;19909;-61
2022/09/18 07:30:35;;;;;;;;;;;870.40;1024.00;;;;;;5033873;28;19963;-61
2022/09/18 07:33:01;;;;;;;;;;;845.10;1049.60;;;;;;5033619;28;19909;-61
2022/09/18 07:35:27;;;;;;;;;;;845.70;1024.00;;;;;;5033718;28;20351;-61
2022/09/18 07:37:56;;;;;;;;;;;870.90;1024.00;;;;;;5033494;28;19999;-61
2022/09/18 07:40:22;;;;;;;;;;;845.70;1049.60;;;;;;5033545;28;19917;-62
2022/09/18 07:42:47;;;;;;;;;;;871.20;998.40;;;;;;5033235;28;20424;-62
2022/09/18 07:45:13;;;;;;;;;;;871.30;998.40;;;;;;5033181;28;20283;-69
2022/09/18 07:47:39;;;;;;;;;;;871.20;998.40;;;;;;5031763;28;20375;-61
2022/09/18 07:50:04;;;;;;;;;;;870.80;998.40;;;;;;5031801;28;19990;-60
2022/09/18 07:52:30;;;;;;;;;;;871.10;972.80;;;;;;5032083;28;19909;-61
2022/09/18 07:54:57;;;;;;;;;;;;;;;;;;5029443;28;20431;-69
2022/09/18 07:57:23;;;;;;;;;;;871.30;998.40;;;;;;5031991;28;19932;-67
2022/09/18 07:59:49;;;;;;;;;;;921.80;972.80;;;;;;5010627;28;20375;-60
2022/09/18 08:02:14;;;;;;;;;;;922.00;921.60;;;;;;5031835;28;19923;-68
2022/09/18 08:04:40;;;;;;;;;;;922.00;947.20;;;;;;5032299;28;19956;-60
2022/09/18 08:07:05;;;;;;;;;;;922.00;947.20;;;;;;5031976;28;20481;-63
2022/09/18 08:09:31;;;;;;;;;;;921.70;947.20;;;;;;5031789;28;20345;-66
2022/09/18 08:11:57;;;;;;;;;;;947.30;896.00;;;;;;5031717;28;19916;-62
2022/09/18 08:14:22;;;;;;;;;;;947.30;896.00;;;;;;5031521;28;20286;-61
2022/09/18 08:16:48;;;;;;;;;;;922.30;921.60;;;;;;5031555;28;20320;-60
2022/09/18 08:19:13;;;;;;;;;;;947.20;896.00;;;;;;5031616;28;19909;-63
2022/09/18 08:21:39;;;;;;;;;;;922.50;921.60;;;;;;5030818;28;19944;-64
2022/09/18 08:24:04;;;;;;;;;;;921.80;947.20;;;;;;5031578;28;19909;-58
2022/09/18 08:26:30;;;;;;;;;;;922.40;921.60;;;;;;5031258;28;20043;-59
2022/09/18 08:28:55;;;;;;;;;;;921.80;947.20;;;;;;5031281;28;20382;-63
2022/09/18 08:31:21;;;;;;;;;;;896.90;947.20;;;;;;5032261;28;19913;-70
2022/09/18 08:33:47;;;;;;;;;;;922.40;921.60;;;;;;5032647;28;19909;-58
2022/09/18 08:36:12;;;;;;;;;;;947.60;896.00;;;;;;5032313;28;19996;-61
2022/09/18 08:38:38;;;;;;;;;;;921.90;947.20;;;;;;5032395;28;19935;-61
2022/09/18 08:41:22;;;;;;;;;;;922.40;896.00;;;;;;5032839;28;20267;-61
2022/09/18 08:44:04;;;;;;;;;;;922.20;896.00;;;;;;5031863;28;19928;-58
2022/09/18 08:46:47;;;;;;;;;;;921.60;947.20;;;;;;5014233;28;19926;-58
2022/09/18 08:49:28;;;;;;;;;;;896.50;921.60;;;;;;5032476;28;19956;-61
2022/09/18 08:51:57;;;;;;;;;;;896.20;896.00;;;;;;5032370;28;19932;-60
2022/09/18 08:54:29;;;;;;;;;;;870.40;972.80;;;;;;5032256;28;19948;-60
2022/09/18 08:56:56;;;;;;;;;;;819.20;1024.00;;;;;;5031987;28;19909;-60
2022/09/18 08:59:39;;;;;;;;;;;768.60;1049.60;;;;;;5032035;28;19963;-59
2022/09/18 09:02:07;;;;;;;;;;;742.70;1100.80;;;;;;5032238;28;19925;-59
2022/09/18 09:04:34;;;;;;;;;;;717.10;1126.40;;;;;;5032190;28;19909;-59
2022/09/18 09:07:18;;;;;;;;;;;691.90;1152.00;;;;;;5031686;28;19909;-59
2022/09/18 09:09:43;;;;;;;;;;;666.30;1152.00;;;;;;5031891;28;20233;-58
2022/09/18 09:12:11;;;;;;;;;;;640.90;1228.80;;;;;;5031782;28;19909;-61
2022/09/18 09:15:06;;;;;;;;;;;665.60;1228.80;;;;;;5031750;28;19913;-59
2022/09/18 09:17:32;;;;;;;;;;;640.70;1203.20;;;;;;4951259;29;19926;-58
2022/09/18 09:20:02;;;;;;;;;;;615.30;1228.80;;;;;;4951367;29;19914;-59
2022/09/18 09:22:28;;;;;;;;;;;614.80;1305.60;;;;;;4948113;28;19919;-60
2022/09/18 09:24:56;;;;;;;;;;;614.90;1305.60;;;;;;4949747;29;20005;-60
2022/09/18 09:27:23;;;;;;;;;;;614.50;1280.00;;;;;;4949340;29;20333;-60
2022/09/18 09:29:55;;;;;;;;;;;614.70;1280.00;;;;;;4949150;29;19963;-59
2022/09/18 09:32:26;;;;;;;;;;;614.90;1280.00;;;;;;4949144;29;19917;-59
2022/09/18 09:35:04;;;;;;;;;;;615.10;1280.00;;;;;;4948765;29;19919;-59
2022/09/18 09:37:38;;;;;;;;;;;614.80;1305.60;;;;;;4949179;29;19950;-60
2022/09/18 09:40:10;;;;;;;;;;;614.60;1305.60;;;;;;4949381;29;20046;-59
2022/09/18 09:42:47;;;;;;;;;;;588.90;1331.20;;;;;;4949064;29;20317;-59
2022/09/18 09:45:15;;;;;;;;;;;563.70;1382.40;;;;;;4948894;29;20370;-59
2022/09/18 09:47:43;;;;;;;;;;;563.40;1382.40;;;;;;4948693;29;20020;-60
2022/09/18 09:50:09;;;;;;;;;;;563.50;1382.40;;;;;;4949056;29;20413;-60
2022/09/18 09:52:38;;;;;;;;;;;563.60;1382.40;;;;;;4949223;29;20005;-59
2022/09/18 09:55:13;;;;;;;;;;;563.70;1382.40;;;;;;5027398;28;19913;-59
2022/09/18 09:57:44;;;;;;;;;;;563.60;1382.40;;;;;;5029234;28;20363;-60
2022/09/18 10:00:14;;;;;;;;;;;563.30;1484.80;;;;;;5029213;28;20031;-57
2022/09/18 10:02:45;;;;;;;;;;;563.20;1484.80;;;;;;5028823;28;19924;-59
2022/09/18 10:05:23;;;;;;;;;;;563.20;1459.20;;;;;;5029057;28;19909;-59
2022/09/18 10:07:52;;;;;;;;;;;563.30;1459.20;;;;;;5028957;28;19924;-59
2022/09/18 10:10:26;;;;;;;;;;;538.40;1408.00;;;;;;5030524;28;19909;-60
2022/09/18 10:12:54;;;;;;;;;;;538.50;1433.60;;;;;;5030732;28;19983;-60
2022/09/18 10:15:20;;;;;;;;;;;538.50;1408.00;;;;;;5030399;28;19940;-59
2022/09/18 10:17:47;;;;;;;;;;;563.30;1459.20;;;;;;5030733;28;20271;-59
2022/09/18 10:20:17;;;;;;;;;;;538.50;1536.00;;;;;;5030566;28;19913;-60
2022/09/18 10:22:43;;;;;;;;;;;538.40;1484.80;;;;;;5030569;28;19924;-59
2022/09/18 10:25:29;;;;;;;;;;;538.00;1536.00;;;;;;5029104;28;19913;-59
2022/09/18 10:27:54;;;;;;;;;;;538.00;1484.80;;;;;;5028209;28;19913;-60
2022/09/18 10:30:20;;;;;;;;;;;537.90;1459.20;;;;;;5028983;28;19909;-59
2022/09/18 10:32:45;;;;;;;;;;;538.00;1433.60;;;;;;5028997;28;20322;-60
2022/09/18 10:35:29;;;;;;;;;;;538.00;1433.60;;;;;;5027990;28;20379;-60
2022/09/18 10:37:56;;;;;;;;;;;538.00;1510.40;;;;;;5028431;28;19980;-59
2022/09/18 10:40:30;;;;;;;;;;;512.90;1510.40;;;;;;5028704;28;20080;-59
2022/09/18 10:42:55;;;;;;;;;;;537.60;1561.60;;;;;;5028900;28;19917;-60
2022/09/18 10:45:23;;;;;;;;;;;537.90;1536.00;;;;;;5028445;28;19936;-58
2022/09/18 10:47:49;;;;;;;;;;;537.80;1536.00;;;;;;5028546;28;19929;-60
2022/09/18 10:50:18;;;;;;;;;;;537.90;1536.00;;;;;;5028796;28;19913;-59
2022/09/18 10:52:47;;;;;;;;;;;537.90;1510.40;;;;;;5027856;28;19917;-59
2022/09/18 10:55:13;;;;;;;;;;;537.80;1536.00;;;;;;5028675;28;20366;-58
2022/09/18 10:57:38;;;;;;;;;;;537.70;1536.00;;;;;;5028518;28;20008;-59
2022/09/18 11:00:28;;;;;;;;;;;537.70;1510.40;;;;;;5028741;28;20023;-58
2022/09/18 11:02:54;;;;;;;;;;;537.60;1536.00;;;;;;5028433;28;19928;-59
2022/09/18 11:05:20;;;;;;;;;;;537.70;1510.40;;;;;;5028293;28;19909;-59
2022/09/18 11:07:50;;;;;;;;;;;538.00;1510.40;;;;;;5028709;28;19916;-59
2022/09/18 11:10:17;;;;;;;;;;;538.10;1536.00;;;;;;5028775;28;19913;-60
2022/09/18 11:12:46;;;;;;;;;;;538.40;1510.40;;;;;;5028714;28;19910;-59
2022/09/18 11:15:15;;;;;;;;;;;538.10;1484.80;;;;;;5028198;28;19921;-59
2022/09/18 11:17:46;;;;;;;;;;;537.70;1459.20;;;;;;5027904;28;19914;-59
2022/09/18 11:20:20;;;;;;;;;;;538.10;1484.80;;;;;;5028359;28;19917;-59
2022/09/18 11:22:46;;;;;;;;;;;538.10;1510.40;;;;;;5028607;28;19924;-59
2022/09/18 11:25:11;;;;;;;;;;;538.20;1484.80;;;;;;5028174;28;20275;-59
2022/09/18 11:27:45;;;;;;;;;;;538.00;1484.80;;;;;;5028216;28;19910;-59
2022/09/18 11:30:14;;;;;;;;;;;538.10;1510.40;;;;;;5030315;28;20362;-60
2022/09/18 11:32:40;;;;;;;;;;;538.10;1459.20;;;;;;5030063;28;19909;-60
2022/09/18 11:35:12;;;;;;;;;;;538.00;1484.80;;;;;;5030176;28;19932;-59
2022/09/18 11:37:48;;;;;;;;;;;538.10;1433.60;;;;;;5030237;28;19909;-59
2022/09/18 11:40:23;;;;;;;;;;;537.90;1459.20;;;;;;5029944;28;19916;-59
2022/09/18 11:42:51;;;;;;;;;;;537.90;1459.20;;;;;;5029683;28;19923;-59
2022/09/18 11:45:23;;;;;;;;;;;537.70;1484.80;;;;;;5029307;28;19921;-59
2022/09/18 11:47:56;;;;;;;;;;;537.70;1484.80;;;;;;5032068;28;19917;-60
2022/09/18 11:50:28;;;;;;;;;;;512.90;1484.80;;;;;;5032074;28;19913;-59
2022/09/18 11:52:55;;;;;;;;;;;537.60;1510.40;;;;;;5030035;28;19909;-59
2022/09/18 11:55:33;;;;;;;;;;;537.60;1484.80;;;;;;5030381;28;20363;-59
2022/09/18 11:58:04;;;;;;;;;;;512.80;1459.20;;;;;;5030533;28;19915;-59
2022/09/18 12:00:36;;;;;;;;;;;537.60;1459.20;;;;;;5029047;28;20008;-60
2022/09/18 12:03:23;;;;;;;;;;;537.80;1459.20;;;;;;5028868;28;19921;-58
2022/09/18 12:05:51;;;;;;;;;;;537.80;1459.20;;;;;;5026608;28;19921;-58
2022/09/18 12:08:21;;;;;;;;;;;537.80;1408.00;;;;;;5029141;28;19932;-59
2022/09/18 12:10:47;;;;;;;;;;;512.90;1382.40;;;;;;5026729;28;19967;-58
2022/09/18 12:13:17;;;;;;;;;;;537.70;1459.20;;;;;;5028742;28;19941;-59
2022/09/18 12:15:47;;;;;;;;;;;538.00;1459.20;;;;;;5028755;28;19960;-59
2022/09/18 12:18:25;;;;;;;;;;;538.20;1408.00;;;;;;5028311;28;20684;-59
2022/09/18 12:20:57;;;;;;;;;;;538.20;1459.20;;;;;;5026493;28;20417;-58
2022/09/18 12:23:24;;;;;;;;;;;538.10;1459.20;;;;;;5028924;28;20351;-58
2022/09/18 12:26:09;;;;;;;;;;;538.20;1408.00;;;;;;5028740;28;20015;-59
2022/09/18 12:28:35;;;;;;;;;;;538.40;1433.60;;;;;;5026968;28;19909;-60
2022/09/18 12:31:19;;;;;;;;;;;538.30;1382.40;;;;;;5028331;28;20000;-60
2022/09/18 12:33:47;;;;;;;;;;;537.80;1408.00;;;;;;5028406;28;19955;-59
2022/09/18 12:36:29;;;;;;;;;;;512.80;1408.00;;;;;;5029011;28;19913;-58
2022/09/18 12:39:02;;;;;;;;;;;512.60;1433.60;;;;;;5027059;28;20007;-59
2022/09/18 12:41:33;;;;;;;;;;;512.10;1408.00;;;;;;5025867;28;20703;-59
2022/09/18 12:43:59;;;;;;;;;;;512.30;1433.60;;;;;;5027799;28;19917;-59
2022/09/18 12:46:43;;;;;;;;;;;512.70;1408.00;;;;;;4964667;28;1844535;-58
2022/09/18 12:49:24;;;;;;;;;;;512.80;1382.40;;;;;;5026635;28;19917;-59
2022/09/18 12:52:08;;;;;;;;;;;512.80;1382.40;;;;;;5030463;28;20011;-58
2022/09/18 12:54:44;;;;;;;;;;;512.40;1408.00;;;;;;5026181;28;19948;-58
2022/09/18 12:57:15;;;;;;;;;;;512.00;1433.60;;;;;;5026494;28;19924;-59
2022/09/18 12:59:44;;;;;;;;;;;512.00;1382.40;;;;;;5028905;28;19994;-57
2022/09/18 13:02:22;;;;;;;;;;;512.40;1382.40;;;;;;5026738;28;19947;-59
2022/09/18 13:04:52;;;;;;;;;;;512.60;1356.80;;;;;;5026739;28;20342;-58
2022/09/18 13:07:38;;;;;;;;;;;512.80;1356.80;;;;;;5029250;28;19987;-60
2022/09/18 13:10:04;;;;;;;;;;;537.60;1382.40;;;;;;5028719;28;19916;-59
2022/09/18 13:12:32;;;;;;;;;;;537.60;1433.60;;;;;;5029614;28;19916;-60
2022/09/18 13:15:25;;;;;;;;;;;537.70;1382.40;;;;;;5029136;28;19936;-59
2022/09/18 13:18:02;;;;;;;;;;;537.60;1408.00;;;;;;4949030;29;20005;-59
2022/09/18 13:20:32;;;;;;;;;;;512.90;1382.40;;;;;;4949612;29;20392;-59
2022/09/18 13:22:58;;;;;;;;;;;512.40;1433.60;;;;;;4949377;29;19995;-59
2022/09/18 13:25:30;;;;;;;;;;;512.10;1459.20;;;;;;4949716;29;19957;-59
2022/09/18 13:27:57;;;;;;;;;;;487.30;1433.60;;;;;;4949580;29;19911;-59
2022/09/18 13:30:24;;;;;;;;;;;487.10;1459.20;;;;;;4949155;29;19906;-58
2022/09/18 13:32:50;;;;;;;;;;;512.00;1459.20;;;;;;4949424;29;20369;-60
2022/09/18 13:35:21;;;;;;;;;;;512.30;1459.20;;;;;;4949483;29;19926;-58
2022/09/18 13:37:47;;;;;;;;;;;512.50;1459.20;;;;;;4948992;29;20107;-59
2022/09/18 13:40:25;;;;;;;;;;;512.50;1484.80;;;;;;4949266;29;19958;-60
2022/09/18 13:42:50;;;;;;;;;;;512.80;1382.40;;;;;;4948863;29;20017;-59
2022/09/18 13:45:23;;;;;;;;;;;537.60;1408.00;;;;;;4948923;29;20021;-59
2022/09/18 13:48:00;;;;;;;;;;;537.70;1433.60;;;;;;4949100;29;19930;-59
2022/09/18 13:50:26;;;;;;;;;;;537.80;1408.00;;;;;;4948923;29;19965;-59
2022/09/18 13:52:54;;;;;;;;;;;537.60;1382.40;;;;;;4948987;29;19915;-59
2022/09/18 13:55:21;;;;;;;;;;;512.90;1331.20;;;;;;5011822;28;19959;-59